sensor_id;sensor_type;location;lat;lon;timestamp;pressure;altitude;pressure_sealevel;temperature
37414;BMP280;23279;46.472;30.760;2023-05-14T00:02:16;78929.41;;;-146.33
37414;BMP280;23279;46.472;30.760;2023-05-14T00:04:42;78935.53;;;-146.33
37414;BMP280;23279;46.472;30.760;2023-05-14T00:07:07;78943.66;;;-146.33
37414;BMP280;23279;46.472;30.760;2023-05-14T00:09:33;78939.59;;;-146.33
37414;BMP280;23279;46.472;30.760;2023-05-14T00:11:59;78945.69;;;-146.33
37414;BMP280;23279;46.472;30.760;2023-05-14T00:14:25;78947.75;;;-146.33
37414;BMP280;23279;46.472;30.760;2023-05-14T00:16:50;78951.81;;;-146.33
37414;BMP280;23279;46.472;30.760;2023-05-14T00:19:16;78957.91;;;-146.33
37414;BMP280;23279;46.472;30.760;2023-05-14T00:21:41;78962.00;;;-146.33
37414;BMP280;23279;46.472;30.760;2023-05-14T00:24:07;78957.91;;;-146.33
37414;BMP280;23279;46.472;30.760;2023-05-14T00:26:32;78959.94;;;-146.33
37414;BMP280;23279;46.472;30.760;2023-05-14T00:28:57;78962.00;;;-146.33
37414;BMP280;23279;46.472;30.760;2023-05-14T00:31:23;78968.09;;;-146.33
37414;BMP280;23279;46.472;30.760;2023-05-14T00:33:48;78968.09;;;-146.33
37414;BMP280;23279;46.472;30.760;2023-05-14T00:36:14;78970.13;;;-146.33
37414;BMP280;23279;46.472;30.760;2023-05-14T00:38:39;78976.25;;;-146.33
37414;BMP280;23279;46.472;30.760;2023-05-14T00:41:04;78976.25;;;-146.33
37414;BMP280;23279;46.472;30.760;2023-05-14T00:43:30;78970.13;;;-146.33
37414;BMP280;23279;46.472;30.760;2023-05-14T00:45:57;78980.31;;;-146.33
37414;BMP280;23279;46.472;30.760;2023-05-14T00:48:23;78976.25;;;-146.33
37414;BMP280;23279;46.472;30.760;2023-05-14T00:50:50;78974.19;;;-146.33
37414;BMP280;23279;46.472;30.760;2023-05-14T00:53:16;78980.31;;;-146.33
37414;BMP280;23279;46.472;30.760;2023-05-14T00:55:42;78982.34;;;-146.33
37414;BMP280;23279;46.472;30.760;2023-05-14T00:58:12;78976.25;;;-146.33
37414;BMP280;23279;46.472;30.760;2023-05-14T01:00:38;78980.31;;;-146.33
37414;BMP280;23279;46.472;30.760;2023-05-14T01:03:05;78980.31;;;-146.33
37414;BMP280;23279;46.472;30.760;2023-05-14T01:16:46;78988.44;;;-146.33
37414;BMP280;23279;46.472;30.760;2023-05-14T01:19:36;79002.69;;;-146.33
37414;BMP280;23279;46.472;30.760;2023-05-14T01:22:01;79004.75;;;-146.33
37414;BMP280;23279;46.472;30.760;2023-05-14T01:24:27;78998.63;;;-146.33
37414;BMP280;23279;46.472;30.760;2023-05-14T01:27:00;79004.75;;;-146.33
37414;BMP280;23279;46.472;30.760;2023-05-14T01:29:27;79006.78;;;-146.33
37414;BMP280;23279;46.472;30.760;2023-05-14T01:31:56;79014.91;;;-146.33
37414;BMP280;23279;46.472;30.760;2023-05-14T01:34:23;79021.03;;;-146.33
37414;BMP280;23279;46.472;30.760;2023-05-14T01:36:50;79025.09;;;-146.33
37414;BMP280;23279;46.472;30.760;2023-05-14T01:39:16;79021.03;;;-146.33
37414;BMP280;23279;46.472;30.760;2023-05-14T01:41:42;79021.03;;;-146.33
37414;BMP280;23279;46.472;30.760;2023-05-14T01:44:09;79021.03;;;-146.33
37414;BMP280;23279;46.472;30.760;2023-05-14T01:46:35;79031.19;;;-146.33
37414;BMP280;23279;46.472;30.760;2023-05-14T01:49:00;79035.28;;;-146.33
37414;BMP280;23279;46.472;30.760;2023-05-14T01:51:26;79027.13;;;-146.33
37414;BMP280;23279;46.472;30.760;2023-05-14T01:53:51;79037.31;;;-146.33
37414;BMP280;23279;46.472;30.760;2023-05-14T01:56:19;79033.22;;;-146.33
37414;BMP280;23279;46.472;30.760;2023-05-14T01:58:46;79035.28;;;-146.33
37414;BMP280;23279;46.472;30.760;2023-05-14T02:01:11;79035.28;;;-146.33
37414;BMP280;23279;46.472;30.760;2023-05-14T02:03:36;79043.41;;;-146.33
37414;BMP280;23279;46.472;30.760;2023-05-14T02:06:02;79041.38;;;-146.33
37414;BMP280;23279;46.472;30.760;2023-05-14T02:08:27;79047.47;;;-146.33
37414;BMP280;23279;46.472;30.760;2023-05-14T02:10:53;79041.38;;;-146.33
37414;BMP280;23279;46.472;30.760;2023-05-14T02:13:18;79045.44;;;-146.33
37414;BMP280;23279;46.472;30.760;2023-05-14T02:15:44;79043.41;;;-146.33
37414;BMP280;23279;46.472;30.760;2023-05-14T02:18:09;79047.47;;;-146.33
37414;BMP280;23279;46.472;30.760;2023-05-14T02:20:34;79053.59;;;-146.33
37414;BMP280;23279;46.472;30.760;2023-05-14T02:23:00;79055.63;;;-146.33
37414;BMP280;23279;46.472;30.760;2023-05-14T02:25:25;79057.66;;;-146.33
37414;BMP280;23279;46.472;30.760;2023-05-14T02:27:51;79053.59;;;-146.33
37414;BMP280;23279;46.472;30.760;2023-05-14T02:30:16;79057.66;;;-146.33
37414;BMP280;23279;46.472;30.760;2023-05-14T02:32:42;79065.81;;;-146.33
37414;BMP280;23279;46.472;30.760;2023-05-14T02:35:07;79065.81;;;-146.33
37414;BMP280;23279;46.472;30.760;2023-05-14T02:37:33;79063.78;;;-146.33
37414;BMP280;23279;46.472;30.760;2023-05-14T02:39:59;79063.78;;;-146.33
37414;BMP280;23279;46.472;30.760;2023-05-14T02:42:24;79067.84;;;-146.33
37414;BMP280;23279;46.472;30.760;2023-05-14T02:44:51;79073.94;;;-146.33
37414;BMP280;23279;46.472;30.760;2023-05-14T02:47:17;79075.97;;;-146.33
37414;BMP280;23279;46.472;30.760;2023-05-14T02:49:42;79082.09;;;-146.33
37414;BMP280;23279;46.472;30.760;2023-05-14T02:52:07;79078.03;;;-146.33
37414;BMP280;23279;46.472;30.760;2023-05-14T02:54:33;79065.81;;;-146.33
37414;BMP280;23279;46.472;30.760;2023-05-14T02:56:58;79067.84;;;-146.33
37414;BMP280;23279;46.472;30.760;2023-05-14T02:59:24;79080.06;;;-146.33
37414;BMP280;23279;46.472;30.760;2023-05-14T03:01:50;79080.06;;;-146.33
37414;BMP280;23279;46.472;30.760;2023-05-14T03:04:15;79086.16;;;-146.33
37414;BMP280;23279;46.472;30.760;2023-05-14T03:06:41;79080.06;;;-146.33
37414;BMP280;23279;46.472;30.760;2023-05-14T03:09:06;79084.13;;;-146.33
37414;BMP280;23279;46.472;30.760;2023-05-14T03:11:32;79088.19;;;-146.33
37414;BMP280;23279;46.472;30.760;2023-05-14T03:13:57;79090.22;;;-146.33
37414;BMP280;23279;46.472;30.760;2023-05-14T03:16:23;79078.03;;;-146.33
37414;BMP280;23279;46.472;30.760;2023-05-14T03:18:48;79094.31;;;-146.33
37414;BMP280;23279;46.472;30.760;2023-05-14T03:21:14;79110.59;;;-146.33
37414;BMP280;23279;46.472;30.760;2023-05-14T03:23:40;79114.66;;;-146.33
37414;BMP280;23279;46.472;30.760;2023-05-14T03:26:05;79094.31;;;-146.33
37414;BMP280;23279;46.472;30.760;2023-05-14T03:28:30;79090.22;;;-146.33
37414;BMP280;23279;46.472;30.760;2023-05-14T03:30:56;79071.91;;;-146.33
37414;BMP280;23279;46.472;30.760;2023-05-14T03:33:21;79078.03;;;-146.33
37414;BMP280;23279;46.472;30.760;2023-05-14T03:35:47;79092.28;;;-146.33
37414;BMP280;23279;46.472;30.760;2023-05-14T03:38:13;79086.16;;;-146.33
37414;BMP280;23279;46.472;30.760;2023-05-14T03:40:38;79084.13;;;-146.33
37414;BMP280;23279;46.472;30.760;2023-05-14T03:43:04;79078.03;;;-146.33
37414;BMP280;23279;46.472;30.760;2023-05-14T03:45:29;79057.66;;;-146.33
37414;BMP280;23279;46.472;30.760;2023-05-14T03:47:55;79061.72;;;-146.33
37414;BMP280;23279;46.472;30.760;2023-05-14T03:50:20;79037.31;;;-146.33
37414;BMP280;23279;46.472;30.760;2023-05-14T03:52:45;79045.44;;;-146.33
37414;BMP280;23279;46.472;30.760;2023-05-14T03:55:11;79033.22;;;-146.33
37414;BMP280;23279;46.472;30.760;2023-05-14T03:57:36;79045.44;;;-146.33
37414;BMP280;23279;46.472;30.760;2023-05-14T04:00:05;79037.31;;;-146.33
37414;BMP280;23279;46.472;30.760;2023-05-14T04:02:31;79029.16;;;-146.33
37414;BMP280;23279;46.472;30.760;2023-05-14T04:04:56;79016.94;;;-146.33
37414;BMP280;23279;46.472;30.760;2023-05-14T04:07:22;79008.81;;;-146.33
37414;BMP280;23279;46.472;30.760;2023-05-14T04:09:47;79021.03;;;-146.33
37414;BMP280;23279;46.472;30.760;2023-05-14T04:12:13;79016.94;;;-146.33
37414;BMP280;23279;46.472;30.760;2023-05-14T04:14:38;79010.84;;;-146.33
37414;BMP280;23279;46.472;30.760;2023-05-14T04:17:03;78988.44;;;-146.33
37414;BMP280;23279;46.472;30.760;2023-05-14T04:19:29;78988.44;;;-146.33
37414;BMP280;23279;46.472;30.760;2023-05-14T04:21:54;78972.16;;;-146.33
37414;BMP280;23279;46.472;30.760;2023-05-14T04:24:20;78980.31;;;-146.33
37414;BMP280;23279;46.472;30.760;2023-05-14T04:26:45;78972.16;;;-146.33
37414;BMP280;23279;46.472;30.760;2023-05-14T04:29:10;78964.03;;;-146.33
37414;BMP280;23279;46.472;30.760;2023-05-14T04:31:36;78968.09;;;-146.33
37414;BMP280;23279;46.472;30.760;2023-05-14T04:34:01;78933.50;;;-146.33
37414;BMP280;23279;46.472;30.760;2023-05-14T04:36:26;78915.16;;;-146.33
37414;BMP280;23279;46.472;30.760;2023-05-14T04:38:52;78927.38;;;-146.33
37414;BMP280;23279;46.472;30.760;2023-05-14T04:41:17;78923.31;;;-146.33
37414;BMP280;23279;46.472;30.760;2023-05-14T04:43:43;78949.78;;;-146.33
37414;BMP280;23279;46.472;30.760;2023-05-14T04:46:08;78929.41;;;-146.33
37414;BMP280;23279;46.472;30.760;2023-05-14T04:48:34;78927.38;;;-146.33
37414;BMP280;23279;46.472;30.760;2023-05-14T04:50:59;78911.09;;;-146.33
37414;BMP280;23279;46.472;30.760;2023-05-14T04:53:25;78911.09;;;-146.33
37414;BMP280;23279;46.472;30.760;2023-05-14T04:55:50;78888.72;;;-146.33
37414;BMP280;23279;46.472;30.760;2023-05-14T04:58:16;78888.72;;;-146.33
37414;BMP280;23279;46.472;30.760;2023-05-14T05:00:41;78833.75;;;-146.33
37414;BMP280;23279;46.472;30.760;2023-05-14T05:03:07;78821.53;;;-146.33
37414;BMP280;23279;46.472;30.760;2023-05-14T05:05:32;78786.94;;;-146.33
37414;BMP280;23279;46.472;30.760;2023-05-14T05:07:59;78766.56;;;-146.33
37414;BMP280;23279;46.472;30.760;2023-05-14T05:10:24;78760.47;;;-146.33
37414;BMP280;23279;46.472;30.760;2023-05-14T05:12:50;78772.69;;;-146.33
37414;BMP280;23279;46.472;30.760;2023-05-14T05:15:15;78736.03;;;-146.33
37414;BMP280;23279;46.472;30.760;2023-05-14T05:17:41;78740.13;;;-146.33
37414;BMP280;23279;46.472;30.760;2023-05-14T05:20:07;78742.16;;;-146.33
37414;BMP280;23279;46.472;30.760;2023-05-14T05:22:34;78768.63;;;-146.33
37414;BMP280;23279;46.472;30.760;2023-05-14T05:25:01;78715.69;;;-146.33
37414;BMP280;23279;46.472;30.760;2023-05-14T05:27:30;78660.75;;;-146.33
37414;BMP280;23279;46.472;30.760;2023-05-14T05:29:56;78646.50;;;-146.33
37414;BMP280;23279;46.472;30.760;2023-05-14T05:32:21;78556.94;;;-146.33
37414;BMP280;23279;46.472;30.760;2023-05-14T05:34:47;78546.75;;;-146.33
37414;BMP280;23279;46.472;30.760;2023-05-14T05:37:12;78550.81;;;-146.33
37414;BMP280;23279;46.472;30.760;2023-05-14T05:39:39;78577.28;;;-146.33
37414;BMP280;23279;46.472;30.760;2023-05-14T05:42:04;78524.38;;;-146.33
37414;BMP280;23279;46.472;30.760;2023-05-14T05:44:30;78499.94;;;-146.33
37414;BMP280;23279;46.472;30.760;2023-05-14T05:46:55;78475.53;;;-146.33
37414;BMP280;23279;46.472;30.760;2023-05-14T05:49:21;78471.44;;;-146.33
37414;BMP280;23279;46.472;30.760;2023-05-14T05:51:47;78506.06;;;-146.33
37414;BMP280;23279;46.472;30.760;2023-05-14T05:54:12;78493.84;;;-146.33
37414;BMP280;23279;46.472;30.760;2023-05-14T05:56:38;78530.47;;;-146.33
37414;BMP280;23279;46.472;30.760;2023-05-14T05:59:03;78501.97;;;-146.33
37414;BMP280;23279;46.472;30.760;2023-05-14T06:01:28;78477.56;;;-146.33
37414;BMP280;23279;46.472;30.760;2023-05-14T06:03:55;78438.91;;;-146.33
37414;BMP280;23279;46.472;30.760;2023-05-14T06:06:21;78414.47;;;-146.33
37414;BMP280;23279;46.472;30.760;2023-05-14T06:08:46;78410.41;;;-146.33
37414;BMP280;23279;46.472;30.760;2023-05-14T06:11:11;78381.91;;;-146.33
37414;BMP280;23279;46.472;30.760;2023-05-14T06:13:37;78379.88;;;-146.33
37414;BMP280;23279;46.472;30.760;2023-05-14T06:16:02;78390.03;;;-146.33
37414;BMP280;23279;46.472;30.760;2023-05-14T06:18:28;78359.53;;;-146.33
37414;BMP280;23279;46.472;30.760;2023-05-14T06:20:53;78359.53;;;-146.33
37414;BMP280;23279;46.472;30.760;2023-05-14T06:23:21;78361.56;;;-146.33
37414;BMP280;23279;46.472;30.760;2023-05-14T06:25:48;78337.13;;;-146.33
37414;BMP280;23279;46.472;30.760;2023-05-14T06:28:14;78337.13;;;-146.33
37414;BMP280;23279;46.472;30.760;2023-05-14T06:30:39;78320.84;;;-146.33
37414;BMP280;23279;46.472;30.760;2023-05-14T06:33:05;78294.41;;;-146.33
37414;BMP280;23279;46.472;30.760;2023-05-14T06:35:31;78286.25;;;-146.33
37414;BMP280;23279;46.472;30.760;2023-05-14T06:37:56;78259.78;;;-146.33
37414;BMP280;23279;46.472;30.760;2023-05-14T06:40:22;78255.72;;;-146.33
37414;BMP280;23279;46.472;30.760;2023-05-14T06:42:47;78243.53;;;-146.33
37414;BMP280;23279;46.472;30.760;2023-05-14T06:45:13;78223.16;;;-146.33
37414;BMP280;23279;46.472;30.760;2023-05-14T06:47:38;78219.09;;;-146.33
37414;BMP280;23279;46.472;30.760;2023-05-14T06:50:04;78217.06;;;-146.33
37414;BMP280;23279;46.472;30.760;2023-05-14T06:52:29;78180.44;;;-146.33
37414;BMP280;23279;46.472;30.760;2023-05-14T06:54:55;78192.66;;;-146.33
37414;BMP280;23279;46.472;30.760;2023-05-14T06:57:20;78164.16;;;-146.33
37414;BMP280;23279;46.472;30.760;2023-05-14T06:59:46;78141.75;;;-146.33
37414;BMP280;23279;46.472;30.760;2023-05-14T07:02:11;78164.16;;;-146.33
37414;BMP280;23279;46.472;30.760;2023-05-14T07:04:36;78223.16;;;-146.33
37414;BMP280;23279;46.472;30.760;2023-05-14T07:07:02;78202.81;;;-146.33
37414;BMP280;23279;46.472;30.760;2023-05-14T07:09:27;78227.25;;;-146.33
37414;BMP280;23279;46.472;30.760;2023-05-14T07:11:53;78215.03;;;-146.33
37414;BMP280;23279;46.472;30.760;2023-05-14T07:14:18;78194.69;;;-146.33
37414;BMP280;23279;46.472;30.760;2023-05-14T07:16:44;78178.41;;;-146.33
37414;BMP280;23279;46.472;30.760;2023-05-14T07:19:11;78170.25;;;-146.33
37414;BMP280;23279;46.472;30.760;2023-05-14T07:21:36;78147.88;;;-146.33
37414;BMP280;23279;46.472;30.760;2023-05-14T07:24:02;78164.16;;;-146.33
37414;BMP280;23279;46.472;30.760;2023-05-14T07:26:27;78143.81;;;-146.33
37414;BMP280;23279;46.472;30.760;2023-05-14T07:28:53;78162.13;;;-146.33
37414;BMP280;23279;46.472;30.760;2023-05-14T07:31:18;78156.00;;;-146.33
37414;BMP280;23279;46.472;30.760;2023-05-14T07:33:43;78117.34;;;-146.33
37414;BMP280;23279;46.472;30.760;2023-05-14T07:36:09;78109.22;;;-146.33
37414;BMP280;23279;46.472;30.760;2023-05-14T07:38:35;78117.34;;;-146.33
37414;BMP280;23279;46.472;30.760;2023-05-14T07:41:00;78115.31;;;-146.33
37414;BMP280;23279;46.472;30.760;2023-05-14T07:43:26;78117.34;;;-146.33
37414;BMP280;23279;46.472;30.760;2023-05-14T07:45:51;78105.13;;;-146.33
37414;BMP280;23279;46.472;30.760;2023-05-14T07:48:18;78088.84;;;-146.33
37414;BMP280;23279;46.472;30.760;2023-05-14T07:50:43;78097.00;;;-146.33
37414;BMP280;23279;46.472;30.760;2023-05-14T07:53:09;78092.94;;;-146.33
37414;BMP280;23279;46.472;30.760;2023-05-14T07:55:35;78074.63;;;-146.33
37414;BMP280;23279;46.472;30.760;2023-05-14T07:58:01;78052.22;;;-146.33
37414;BMP280;23279;46.472;30.760;2023-05-14T08:00:26;78021.69;;;-146.33
37414;BMP280;23279;46.472;30.760;2023-05-14T08:02:51;77999.31;;;-146.33
37414;BMP280;23279;46.472;30.760;2023-05-14T08:05:17;77995.25;;;-146.33
37414;BMP280;23279;46.472;30.760;2023-05-14T08:07:43;77999.31;;;-146.33
37414;BMP280;23279;46.472;30.760;2023-05-14T08:10:09;77995.25;;;-146.33
37414;BMP280;23279;46.472;30.760;2023-05-14T08:12:34;78007.47;;;-146.33
37414;BMP280;23279;46.472;30.760;2023-05-14T08:15:01;77989.16;;;-146.33
37414;BMP280;23279;46.472;30.760;2023-05-14T08:17:26;77987.13;;;-146.33
37414;BMP280;23279;46.472;30.760;2023-05-14T08:19:52;77970.84;;;-146.33
37414;BMP280;23279;46.472;30.760;2023-05-14T08:22:17;77962.69;;;-146.33
37414;BMP280;23279;46.472;30.760;2023-05-14T08:24:43;77950.47;;;-146.33
37414;BMP280;23279;46.472;30.760;2023-05-14T08:27:08;77926.06;;;-146.33
37414;BMP280;23279;46.472;30.760;2023-05-14T08:29:34;77917.94;;;-146.33
37414;BMP280;23279;46.472;30.760;2023-05-14T08:31:59;77909.78;;;-146.33
37414;BMP280;23279;46.472;30.760;2023-05-14T08:34:25;77893.50;;;-146.33
37414;BMP280;23279;46.472;30.760;2023-05-14T08:36:52;77895.53;;;-146.33
37414;BMP280;23279;46.472;30.760;2023-05-14T08:39:17;77889.44;;;-146.33
37414;BMP280;23279;46.472;30.760;2023-05-14T08:41:44;77875.19;;;-146.33
37414;BMP280;23279;46.472;30.760;2023-05-14T08:44:17;77901.66;;;-146.33
37414;BMP280;23279;46.472;30.760;2023-05-14T08:46:44;77889.44;;;-146.33
37414;BMP280;23279;46.472;30.760;2023-05-14T08:49:41;77976.94;;;-146.33
37414;BMP280;23279;46.472;30.760;2023-05-14T08:52:08;78013.56;;;-146.33
37414;BMP280;23279;46.472;30.760;2023-05-14T08:54:34;77983.03;;;-146.33
37414;BMP280;23279;46.472;30.760;2023-05-14T08:56:59;77974.91;;;-146.33
37414;BMP280;23279;46.472;30.760;2023-05-14T08:59:25;78070.53;;;-146.33
37414;BMP280;23279;46.472;30.760;2023-05-14T09:01:52;78080.72;;;-146.33
37414;BMP280;23279;46.472;30.760;2023-05-14T09:04:22;78101.06;;;-146.33
37414;BMP280;23279;46.472;30.760;2023-05-14T09:06:50;78031.88;;;-146.33
37414;BMP280;23279;46.472;30.760;2023-05-14T09:09:15;77999.31;;;-146.33
37414;BMP280;23279;46.472;30.760;2023-05-14T09:11:44;78013.56;;;-146.33
37414;BMP280;23279;46.472;30.760;2023-05-14T09:14:10;77964.72;;;-146.33
37414;BMP280;23279;46.472;30.760;2023-05-14T09:16:36;77974.91;;;-146.33
37414;BMP280;23279;46.472;30.760;2023-05-14T09:19:03;77964.72;;;-146.33
37414;BMP280;23279;46.472;30.760;2023-05-14T09:21:29;78068.50;;;-146.33
37414;BMP280;23279;46.472;30.760;2023-05-14T09:23:56;78105.13;;;-146.33
37414;BMP280;23279;46.472;30.760;2023-05-14T09:26:23;78139.72;;;-146.33
37414;BMP280;23279;46.472;30.760;2023-05-14T09:28:56;78131.59;;;-146.33
37414;BMP280;23279;46.472;30.760;2023-05-14T09:31:22;78135.66;;;-146.33
37414;BMP280;23279;46.472;30.760;2023-05-14T09:33:50;78052.22;;;-146.33
37414;BMP280;23279;46.472;30.760;2023-05-14T09:36:16;78019.66;;;-146.33
37414;BMP280;23279;46.472;30.760;2023-05-14T09:38:42;78054.25;;;-146.33
37414;BMP280;23279;46.472;30.760;2023-05-14T09:41:07;78101.06;;;-146.33
37414;BMP280;23279;46.472;30.760;2023-05-14T09:43:33;78129.56;;;-146.33
37414;BMP280;23279;46.472;30.760;2023-05-14T09:45:58;78044.09;;;-146.33
37414;BMP280;23279;46.472;30.760;2023-05-14T09:48:24;78027.81;;;-146.33
37414;BMP280;23279;46.472;30.760;2023-05-14T09:50:50;78070.53;;;-146.33
37414;BMP280;23279;46.472;30.760;2023-05-14T09:53:16;78064.44;;;-146.33
37414;BMP280;23279;46.472;30.760;2023-05-14T09:55:43;78056.28;;;-146.33
37414;BMP280;23279;46.472;30.760;2023-05-14T09:58:09;78060.38;;;-146.33
37414;BMP280;23279;46.472;30.760;2023-05-14T10:00:37;78011.53;;;-146.33
37414;BMP280;23279;46.472;30.760;2023-05-14T10:03:05;78042.06;;;-146.33
37414;BMP280;23279;46.472;30.760;2023-05-14T10:05:34;78074.63;;;-146.33
37414;BMP280;23279;46.472;30.760;2023-05-14T10:08:07;78044.09;;;-146.33
37414;BMP280;23279;46.472;30.760;2023-05-14T10:10:34;78064.44;;;-146.33
37414;BMP280;23279;46.472;30.760;2023-05-14T10:13:03;78080.72;;;-146.33
37414;BMP280;23279;46.472;30.760;2023-05-14T10:15:34;78060.38;;;-146.33
37414;BMP280;23279;46.472;30.760;2023-05-14T10:18:04;78072.56;;;-146.33
37414;BMP280;23279;46.472;30.760;2023-05-14T10:20:32;78007.47;;;-146.33
37414;BMP280;23279;46.472;30.760;2023-05-14T10:22:58;77995.25;;;-146.33
37414;BMP280;23279;46.472;30.760;2023-05-14T10:25:24;78001.34;;;-146.33
37414;BMP280;23279;46.472;30.760;2023-05-14T10:27:50;77928.09;;;-146.33
37414;BMP280;23279;46.472;30.760;2023-05-14T10:30:20;77917.94;;;-146.33
37414;BMP280;23279;46.472;30.760;2023-05-14T10:32:46;77976.94;;;-146.33
37414;BMP280;23279;46.472;30.760;2023-05-14T10:35:19;78031.88;;;-146.33
37414;BMP280;23279;46.472;30.760;2023-05-14T10:37:49;77966.75;;;-146.33
37414;BMP280;23279;46.472;30.760;2023-05-14T10:40:15;77948.44;;;-146.33
37414;BMP280;23279;46.472;30.760;2023-05-14T10:42:42;77879.25;;;-146.33
37414;BMP280;23279;46.472;30.760;2023-05-14T10:45:13;77865.03;;;-146.33
37414;BMP280;23279;46.472;30.760;2023-05-14T10:47:44;77877.22;;;-146.33
37414;BMP280;23279;46.472;30.760;2023-05-14T10:50:11;77889.44;;;-146.33
37414;BMP280;23279;46.472;30.760;2023-05-14T10:52:40;77926.06;;;-146.33
37414;BMP280;23279;46.472;30.760;2023-05-14T10:55:07;77917.94;;;-146.33
37414;BMP280;23279;46.472;30.760;2023-05-14T10:57:44;77891.47;;;-146.33
37414;BMP280;23279;46.472;30.760;2023-05-14T11:00:10;77852.81;;;-146.33
37414;BMP280;23279;46.472;30.760;2023-05-14T11:02:38;77836.53;;;-146.33
37414;BMP280;23279;46.472;30.760;2023-05-14T11:05:08;77942.34;;;-146.33
37414;BMP280;23279;46.472;30.760;2023-05-14T11:07:39;77909.78;;;-146.33
37414;BMP280;23279;46.472;30.760;2023-05-14T11:12:36;77932.16;;;-146.33
37414;BMP280;23279;46.472;30.760;2023-05-14T11:15:03;77897.56;;;-146.33
37414;BMP280;23279;46.472;30.760;2023-05-14T11:17:30;77944.38;;;-146.33
37414;BMP280;23279;46.472;30.760;2023-05-14T11:19:56;77991.19;;;-146.33
37414;BMP280;23279;46.472;30.760;2023-05-14T11:22:22;77995.25;;;-146.33
37414;BMP280;23279;46.472;30.760;2023-05-14T11:24:49;77958.63;;;-146.33
37414;BMP280;23279;46.472;30.760;2023-05-14T11:27:15;77930.13;;;-146.33
37414;BMP280;23279;46.472;30.760;2023-05-14T11:29:45;77952.53;;;-146.33
37414;BMP280;23279;46.472;30.760;2023-05-14T11:32:11;78027.81;;;-146.33
37414;BMP280;23279;46.472;30.760;2023-05-14T11:34:37;78001.34;;;-146.33
37414;BMP280;23279;46.472;30.760;2023-05-14T11:37:06;78003.38;;;-146.33
37414;BMP280;23279;46.472;30.760;2023-05-14T11:39:33;78058.34;;;-146.33
37414;BMP280;23279;46.472;30.760;2023-05-14T11:42:04;78103.09;;;-146.33
37414;BMP280;23279;46.472;30.760;2023-05-14T11:44:33;78082.75;;;-146.33
37414;BMP280;23279;46.472;30.760;2023-05-14T11:46:58;78031.88;;;-146.33
37414;BMP280;23279;46.472;30.760;2023-05-14T11:49:26;78013.56;;;-146.33
37414;BMP280;23279;46.472;30.760;2023-05-14T11:52:00;77989.16;;;-146.33
37414;BMP280;23279;46.472;30.760;2023-05-14T11:54:29;77934.19;;;-146.33
37414;BMP280;23279;46.472;30.760;2023-05-14T11:56:55;77950.47;;;-146.33
37414;BMP280;23279;46.472;30.760;2023-05-14T11:59:27;77991.19;;;-146.33
37414;BMP280;23279;46.472;30.760;2023-05-14T12:01:54;77972.88;;;-146.33
37414;BMP280;23279;46.472;30.760;2023-05-14T12:04:20;77974.91;;;-146.33
37414;BMP280;23279;46.472;30.760;2023-05-14T12:06:50;78015.59;;;-146.33
37414;BMP280;23279;46.472;30.760;2023-05-14T12:09:17;77983.03;;;-146.33
37414;BMP280;23279;46.472;30.760;2023-05-14T12:11:47;77962.69;;;-146.33
37414;BMP280;23279;46.472;30.760;2023-05-14T12:14:20;77950.47;;;-146.33
37414;BMP280;23279;46.472;30.760;2023-05-14T12:16:46;77909.78;;;-146.33
37414;BMP280;23279;46.472;30.760;2023-05-14T12:19:16;77938.28;;;-146.33
37414;BMP280;23279;46.472;30.760;2023-05-14T12:21:43;77901.66;;;-146.33
37414;BMP280;23279;46.472;30.760;2023-05-14T12:24:11;77909.78;;;-146.33
37414;BMP280;23279;46.472;30.760;2023-05-14T12:26:37;77944.38;;;-146.33
37414;BMP280;23279;46.472;30.760;2023-05-14T12:29:03;77938.28;;;-146.33
37414;BMP280;23279;46.472;30.760;2023-05-14T12:31:30;77930.13;;;-146.33
37414;BMP280;23279;46.472;30.760;2023-05-14T12:33:56;77938.28;;;-146.33
37414;BMP280;23279;46.472;30.760;2023-05-14T12:36:21;77958.63;;;-146.33
37414;BMP280;23279;46.472;30.760;2023-05-14T12:38:47;77991.19;;;-146.33
37414;BMP280;23279;46.472;30.760;2023-05-14T12:41:13;77964.72;;;-146.33
37414;BMP280;23279;46.472;30.760;2023-05-14T12:43:42;77993.22;;;-146.33
37414;BMP280;23279;46.472;30.760;2023-05-14T12:46:08;77978.97;;;-146.33
37414;BMP280;23279;46.472;30.760;2023-05-14T12:48:33;77944.38;;;-146.33
37414;BMP280;23279;46.472;30.760;2023-05-14T12:50:58;77985.06;;;-146.33
37414;BMP280;23279;46.472;30.760;2023-05-14T12:53:24;77924.03;;;-146.33
37414;BMP280;23279;46.472;30.760;2023-05-14T12:55:49;77856.88;;;-146.33
37414;BMP280;23279;46.472;30.760;2023-05-14T12:58:15;77873.16;;;-146.33
37414;BMP280;23279;46.472;30.760;2023-05-14T13:00:40;77936.25;;;-146.33
37414;BMP280;23279;46.472;30.760;2023-05-14T13:03:06;77881.31;;;-146.33
37414;BMP280;23279;46.472;30.760;2023-05-14T13:05:31;77881.31;;;-146.33
37414;BMP280;23279;46.472;30.760;2023-05-14T13:07:58;77844.66;;;-146.33
37414;BMP280;23279;46.472;30.760;2023-05-14T13:10:23;77917.94;;;-146.33
37414;BMP280;23279;46.472;30.760;2023-05-14T13:12:48;77942.34;;;-146.33
37414;BMP280;23279;46.472;30.760;2023-05-14T13:15:14;77948.44;;;-146.33
37414;BMP280;23279;46.472;30.760;2023-05-14T13:17:40;77964.72;;;-146.33
37414;BMP280;23279;46.472;30.760;2023-05-14T13:20:08;77983.03;;;-146.33
37414;BMP280;23279;46.472;30.760;2023-05-14T13:22:34;77976.94;;;-146.33
37414;BMP280;23279;46.472;30.760;2023-05-14T13:24:59;77987.13;;;-146.33
37414;BMP280;23279;46.472;30.760;2023-05-14T13:27:25;77960.66;;;-146.33
37414;BMP280;23279;46.472;30.760;2023-05-14T13:29:50;77934.19;;;-146.33
37414;BMP280;23279;46.472;30.760;2023-05-14T13:32:16;77962.69;;;-146.33
37414;BMP280;23279;46.472;30.760;2023-05-14T13:34:41;77981.00;;;-146.33
37414;BMP280;23279;46.472;30.760;2023-05-14T13:37:08;78027.81;;;-146.33
37414;BMP280;23279;46.472;30.760;2023-05-14T13:39:33;78023.75;;;-146.33
37414;BMP280;23279;46.472;30.760;2023-05-14T13:41:59;78042.06;;;-146.33